createdAt,value
2018-02-10T00:00:27.855Z,81.76
2018-02-10T00:01:08.269Z,81.76
2018-02-10T00:01:48.625Z,81.38
2018-02-10T00:02:29.029Z,81.48
2018-02-10T00:03:09.401Z,81.76
2018-02-10T00:03:49.783Z,81.67
2018-02-10T00:04:30.169Z,81.48
2018-02-10T00:05:10.533Z,81.38
2018-02-10T00:05:50.960Z,81.76
2018-02-10T00:06:31.328Z,82.05
2018-02-10T00:07:11.736Z,82.05
2018-02-10T00:07:52.103Z,82.05
2018-02-10T00:08:32.498Z,82.52
2018-02-10T00:09:12.914Z,82.14
2018-02-10T00:09:53.347Z,82.62
2018-02-10T00:10:33.747Z,83.37
2018-02-10T00:11:14.181Z,83.09
2018-02-10T00:13:06.490Z,83.18
2018-02-10T00:13:46.884Z,83.75
2018-02-10T00:14:27.294Z,83.56
2018-02-10T00:15:07.798Z,83.66
2018-02-10T00:15:48.204Z,83.28
2018-02-10T00:16:28.600Z,83.37
2018-02-10T00:17:09.009Z,83.47
2018-02-10T00:17:49.397Z,83.47
2018-02-10T00:20:01.867Z,83.47
2018-02-10T00:20:42.855Z,83.66
2018-02-10T00:21:23.253Z,84.42
2018-02-10T00:22:03.653Z,84.23
2018-02-10T00:22:44.029Z,84.13
2018-02-10T00:24:31.278Z,83.37
2018-02-10T00:25:11.934Z,83.66
2018-02-10T00:25:52.225Z,83.47
2018-02-10T00:26:32.607Z,83.37
2018-02-10T00:27:13.010Z,83.18
2018-02-10T00:27:53.410Z,83.18
2018-02-10T00:28:33.820Z,83.56
2018-02-10T00:29:14.207Z,83.04
2018-02-10T00:29:54.596Z,83.47
2018-02-10T00:30:35.001Z,83.47
2018-02-10T00:31:15.365Z,83.61
2018-02-10T00:33:33.076Z,83.23
2018-02-10T00:34:13.466Z,83.23
2018-02-10T00:34:53.887Z,83.13
2018-02-10T00:35:34.290Z,82.85
2018-02-10T00:36:14.707Z,82.37
2018-02-10T00:36:55.118Z,82.75
2018-02-10T00:38:53.494Z,83.32
2018-02-10T00:39:34.105Z,83.04
2018-02-10T00:40:14.511Z,83.32
2018-02-10T00:40:54.914Z,83.61
2018-02-10T00:42:47.423Z,83.51
2018-02-10T00:43:27.815Z,83.04
2018-02-10T00:44:09.404Z,83.04
2018-02-10T00:44:49.812Z,83.13
2018-02-10T00:45:30.208Z,83.23
2018-02-10T00:46:10.591Z,82.75
2018-02-10T00:46:50.982Z,82.85
2018-02-10T00:47:31.362Z,82.37
2018-02-10T00:48:11.744Z,82.37
2018-02-10T00:48:52.114Z,82.47
2018-02-10T00:49:32.534Z,82.37
2018-02-10T00:50:12.907Z,82.75
2018-02-10T00:50:53.302Z,82.75
2018-02-10T00:51:33.691Z,82.94
2018-02-10T00:53:31.138Z,83.42
2018-02-10T00:54:11.494Z,83.8
2018-02-10T00:54:51.902Z,83.47
2018-02-10T00:55:32.318Z,83.8
2018-02-10T00:56:12.735Z,83.61
2018-02-10T00:56:53.113Z,83.75
2018-02-10T00:57:33.541Z,84.61
2018-02-10T00:58:13.918Z,84.04
2018-02-10T00:58:54.286Z,84.23
2018-02-10T00:59:34.676Z,84.8
2018-02-10T01:00:15.102Z,84.51
2018-02-10T01:00:55.480Z,85.36
2018-02-10T01:01:35.831Z,84.99
2018-02-10T01:02:16.212Z,85.93
2018-02-10T01:02:56.644Z,85.93
2018-02-10T01:03:37.026Z,86.22
2018-02-10T01:05:24.334Z,86.03
2018-02-10T01:06:04.761Z,85.65
2018-02-10T01:06:45.405Z,85.74
2018-02-10T01:07:25.828Z,85.93
2018-02-10T01:08:06.202Z,85.84
2018-02-10T01:08:46.613Z,85.17
2018-02-10T01:09:26.999Z,85.08
2018-02-10T01:10:07.403Z,85.17
2018-02-10T01:10:47.797Z,85.84
2018-02-10T01:11:28.182Z,85.84
2018-02-10T01:12:08.586Z,85.84
2018-02-10T01:12:48.973Z,85.93
2018-02-10T01:13:29.336Z,86.12
2018-02-10T01:14:09.733Z,86.03
2018-02-10T01:16:22.188Z,85.93
2018-02-10T01:17:02.615Z,85.55
2018-02-10T01:17:43.040Z,85.93
2018-02-10T01:18:23.407Z,86.22
2018-02-10T01:19:03.775Z,86.12
2018-02-10T01:19:44.175Z,85.65
2018-02-10T01:20:24.587Z,86.03
2018-02-10T01:21:04.999Z,85.84
2018-02-10T01:21:45.358Z,85.27
2018-02-10T01:22:25.740Z,84.8
2018-02-10T01:24:38.204Z,85.36
2018-02-10T01:25:18.606Z,85.27
2018-02-10T01:25:59.036Z,85.08
2018-02-10T01:26:39.419Z,85.27
2018-02-10T01:27:19.842Z,84.8
2018-02-10T01:28:00.270Z,85.08
2018-02-10T01:28:40.667Z,84.61
2018-02-10T01:29:21.090Z,84.61
2018-02-10T01:30:01.488Z,84.51
2018-02-10T01:30:41.887Z,84.51
2018-02-10T01:31:22.253Z,84.23
2018-02-10T01:32:02.675Z,84.36
2018-02-10T01:32:43.059Z,83.8
2018-02-10T01:33:23.467Z,83.8
2018-02-10T01:34:03.856Z,83.61
2018-02-10T01:34:44.225Z,83.61
2018-02-10T01:35:24.600Z,83.42
2018-02-10T01:36:05.019Z,82.94
2018-02-10T01:36:45.369Z,83.61
2018-02-10T01:37:25.759Z,83.32
2018-02-10T01:38:06.164Z,83.13
2018-02-10T01:38:46.578Z,83.42
2018-02-10T01:39:26.994Z,83.23
2018-02-10T01:40:07.409Z,82.85
2018-02-10T01:40:47.788Z,83.13
2018-02-10T01:41:28.204Z,83.13
2018-02-10T01:42:08.625Z,82.66
2018-02-10T01:42:49.048Z,82.75
2018-02-10T01:43:29.460Z,82.28
2018-02-10T01:44:09.847Z,81.9
2018-02-10T01:44:50.251Z,81.24
2018-02-10T01:45:30.668Z,81.62
2018-02-10T01:46:11.069Z,81.81
2018-02-10T01:46:51.466Z,81.71
2018-02-10T01:47:31.856Z,81.24
2018-02-10T01:48:12.291Z,81.14
2018-02-10T01:48:52.654Z,81.33
2018-02-10T01:49:33.060Z,81.24
2018-02-10T01:50:13.441Z,81.14
2018-02-10T01:50:53.801Z,80.86
2018-02-10T01:51:34.229Z,80.67
2018-02-10T01:52:14.633Z,81.24
2018-02-10T01:52:55.034Z,81.43
2018-02-10T01:53:35.429Z,81.24
2018-02-10T01:54:15.825Z,81.62
2018-02-10T01:54:56.229Z,81.71
2018-02-10T01:55:36.635Z,82.18
2018-02-10T01:56:17.002Z,82.18
2018-02-10T01:56:57.374Z,82.28
2018-02-10T01:57:37.761Z,82.09
2018-02-10T01:58:18.126Z,82.09
2018-02-10T01:58:58.520Z,81.62
2018-02-10T01:59:38.943Z,81.81
2018-02-10T02:00:19.356Z,81.43
2018-02-10T02:00:59.722Z,81.24
2018-02-10T02:01:40.109Z,80.86
2018-02-10T02:02:20.489Z,80.67
2018-02-10T02:03:00.875Z,80.48
2018-02-10T02:03:41.274Z,80.86
2018-02-10T02:04:21.687Z,80.48
2018-02-10T02:05:02.081Z,80.57
2018-02-10T02:05:42.500Z,80.57
2018-02-10T02:06:22.880Z,81.05
2018-02-10T02:07:03.277Z,81.05
2018-02-10T02:07:43.681Z,81.05
2018-02-10T02:08:24.075Z,81.05
2018-02-10T02:09:04.491Z,80.86
2018-02-10T02:09:44.871Z,81.05
2018-02-10T02:10:25.248Z,80.86
2018-02-10T02:12:12.514Z,81.24
2018-02-10T02:12:52.928Z,81.05
2018-02-10T02:13:33.356Z,80.67
2018-02-10T02:14:13.770Z,80.86
2018-02-10T02:14:54.201Z,80.19
2018-02-10T02:15:34.620Z,80.86
2018-02-10T02:16:15.028Z,80.86
2018-02-10T02:16:55.432Z,80.86
2018-02-10T02:17:35.852Z,79.63
2018-02-10T02:18:16.201Z,80.76
2018-02-10T02:18:56.607Z,80.57
2018-02-10T02:19:36.999Z,80.19
2018-02-10T02:20:17.390Z,80.38
2018-02-10T02:20:57.774Z,80.48
2018-02-10T02:21:38.152Z,80.57
2018-02-10T02:22:18.536Z,80.57
2018-02-10T02:22:58.955Z,80.57
2018-02-10T02:23:39.317Z,80.86
2018-02-10T02:24:19.743Z,80.48
2018-02-10T02:25:00.122Z,80.48
2018-02-10T02:25:40.509Z,80
2018-02-10T02:26:20.910Z,80.29
2018-02-10T02:27:01.311Z,80
2018-02-10T02:27:41.665Z,80.29
2018-02-10T02:28:22.102Z,80.43
2018-02-10T02:29:02.468Z,80.43
2018-02-10T02:29:42.855Z,79.72
2018-02-10T02:32:00.351Z,80.29
2018-02-10T02:32:40.764Z,80.48
2018-02-10T02:33:21.200Z,80.29
2018-02-10T02:34:01.864Z,80.19
2018-02-10T02:36:14.324Z,80.76
2018-02-10T02:36:54.755Z,80.29
2018-02-10T02:37:35.173Z,80.24
2018-02-10T02:38:15.562Z,80.33
2018-02-10T02:38:55.932Z,79.38
2018-02-10T02:39:36.328Z,78.81
2018-02-10T02:40:16.739Z,79.19
2018-02-10T02:40:57.150Z,78.81
2018-02-10T02:41:37.569Z,78.91
2018-02-10T02:42:17.979Z,78.62
2018-02-10T02:42:58.405Z,78.91
2018-02-10T02:43:38.806Z,78.81
2018-02-10T02:44:19.205Z,79.1
2018-02-10T02:44:59.599Z,78.91
2018-02-10T02:45:39.974Z,79
2018-02-10T02:46:20.377Z,79
2018-02-10T02:47:00.782Z,78.91
2018-02-10T02:47:41.173Z,79.19
2018-02-10T02:48:21.586Z,79.19
2018-02-10T02:49:01.940Z,79.28
2018-02-10T02:51:14.439Z,78.15
2018-02-10T02:51:54.853Z,78.43
2018-02-10T02:52:35.276Z,79.38
2018-02-10T02:53:15.901Z,79.38
2018-02-10T02:53:56.135Z,79.1
2018-02-10T02:54:36.555Z,79.28
2018-02-10T02:55:16.952Z,79.47
2018-02-10T02:57:04.208Z,78.62
2018-02-10T02:57:44.646Z,78.72
2018-02-10T02:58:25.060Z,79.28
2018-02-10T02:59:05.485Z,79.19
2018-02-10T02:59:45.922Z,78.81
2018-02-10T03:00:26.309Z,78.91
2018-02-10T03:01:06.706Z,78.72
2018-02-10T03:01:47.096Z,78.91
2018-02-10T03:02:27.530Z,79
2018-02-10T03:03:07.957Z,78.91
2018-02-10T03:03:48.382Z,78.81
2018-02-10T03:04:28.753Z,78.81
2018-02-10T03:05:09.126Z,78.81
2018-02-10T03:05:49.530Z,78.87
2018-02-10T03:06:29.916Z,79.15
2018-02-10T03:07:10.310Z,79.28
2018-02-10T03:07:50.705Z,79.06
2018-02-10T03:08:31.103Z,79.25
2018-02-10T03:09:11.476Z,79.15
2018-02-10T03:09:51.877Z,79.34
2018-02-10T03:10:32.253Z,79.82
2018-02-10T03:11:12.646Z,80.19
2018-02-10T03:11:53.007Z,80.76
2018-02-10T03:12:33.415Z,80.19
2018-02-10T03:13:13.834Z,79.95
2018-02-10T03:13:54.263Z,79.72
2018-02-10T03:14:34.635Z,79.82
2018-02-10T03:16:21.908Z,79.72
2018-02-10T03:17:02.338Z,79.06
2018-02-10T03:17:42.773Z,79.34
2018-02-10T03:18:23.196Z,79.91
2018-02-10T03:19:03.616Z,80.24
2018-02-10T03:19:44.029Z,80.33
2018-02-10T03:20:24.441Z,80.24
2018-02-10T03:21:04.820Z,79.85
2018-02-10T03:21:45.230Z,79.76
2018-02-10T03:22:25.633Z,79.95
2018-02-10T03:23:06.050Z,79.85
2018-02-10T03:23:46.457Z,79.76
2018-02-10T03:24:26.844Z,79.85
2018-02-10T03:25:07.214Z,79.76
2018-02-10T03:25:47.617Z,79.47
2018-02-10T03:26:28.004Z,78.81
2018-02-10T03:27:08.403Z,78.15
2018-02-10T03:27:48.808Z,77.96
2018-02-10T03:28:29.171Z,77.86
2018-02-10T03:29:09.550Z,77.39
2018-02-10T03:29:49.952Z,78.05
2018-02-10T03:30:30.332Z,78.24
2018-02-10T03:31:10.737Z,78.24
2018-02-10T03:31:51.156Z,78.05
2018-02-10T03:32:31.566Z,78.24
2018-02-10T03:33:11.947Z,78.15
2018-02-10T03:33:52.314Z,77.77
2018-02-10T03:34:32.724Z,77.39
2018-02-10T03:35:13.124Z,77.48
2018-02-10T03:35:53.548Z,77.11
2018-02-10T03:36:33.948Z,77.29
2018-02-10T03:37:14.336Z,77.58
2018-02-10T03:37:54.754Z,77.77
2018-02-10T03:38:35.149Z,77.67
2018-02-10T03:39:15.559Z,77.11
2018-02-10T03:39:55.980Z,77.01
2018-02-10T03:40:36.379Z,76.73
2018-02-10T03:41:16.770Z,76.63
2018-02-10T03:41:57.161Z,76.82
2018-02-10T03:42:37.608Z,76.54
2018-02-10T03:43:17.995Z,76.73
2018-02-10T03:43:58.411Z,76.63
2018-02-10T03:44:38.803Z,76.92
2018-02-10T03:45:19.176Z,76.73
2018-02-10T03:45:59.636Z,77.11
2018-02-10T03:46:40.042Z,77.39
2018-02-10T03:47:20.424Z,77.29
2018-02-10T03:48:00.816Z,77.29
2018-02-10T03:48:41.229Z,77.29
2018-02-10T03:49:21.642Z,77.77
2018-02-10T03:50:02.055Z,77.39
2018-02-10T03:50:42.459Z,77.2
2018-02-10T03:51:22.883Z,77.01
2018-02-10T03:52:03.304Z,77.29
2018-02-10T03:52:43.718Z,77.05
2018-02-10T03:53:24.138Z,76.67
2018-02-10T03:54:04.565Z,76.2
2018-02-10T03:54:44.976Z,76.01
2018-02-10T03:55:25.405Z,75.81
2018-02-10T03:56:05.829Z,75.91
2018-02-10T03:56:46.235Z,75.81
2018-02-10T03:57:26.623Z,76.01
2018-02-10T03:58:07.031Z,76.29
2018-02-10T03:58:47.434Z,76.29
2018-02-10T03:59:27.842Z,76.1
2018-02-10T04:00:08.261Z,76.2
2018-02-10T04:00:48.687Z,76.01
2018-02-10T04:01:29.080Z,75.81
2018-02-10T04:02:09.477Z,76.39
2018-02-10T04:02:49.865Z,76.29
2018-02-10T04:43:11.636Z,74.87
2018-02-10T04:43:52.028Z,74.49
2018-02-10T04:44:32.393Z,74.11
2018-02-10T04:45:12.772Z,73.92
2018-02-10T04:45:53.160Z,73.92
2018-02-10T04:46:33.586Z,73.92
2018-02-10T04:47:14.002Z,74.11
2018-02-10T04:47:54.460Z,74.58
2018-02-10T04:48:34.762Z,74.01
2018-02-10T04:49:15.171Z,74.01
2018-02-10T04:51:27.738Z,73.82
2018-02-10T04:53:48.835Z,73.92
2018-02-10T04:54:30.898Z,73.92
2018-02-10T04:55:11.302Z,73.92
2018-02-10T04:55:51.689Z,73.92
2018-02-10T04:56:32.101Z,74.77
2018-02-10T04:57:12.481Z,74.3
2018-02-10T04:57:52.845Z,74.49
2018-02-10T04:59:40.151Z,73.92
2018-02-10T05:00:20.538Z,74.11
2018-02-10T05:01:00.949Z,73.44
2018-02-10T05:01:41.316Z,73.25
2018-02-10T05:02:21.716Z,73.16
2018-02-10T05:03:02.089Z,73.63
2018-02-10T05:03:42.508Z,73.54
2018-02-10T05:05:34.821Z,73.25
2018-02-10T05:06:15.212Z,73.38
2018-02-10T05:06:55.615Z,73.1
2018-02-10T05:07:36.172Z,72.91
2018-02-10T05:08:16.591Z,72.91
2018-02-10T05:08:56.986Z,72.81
2018-02-10T05:09:37.398Z,72.72
2018-02-10T05:10:17.830Z,72.15
2018-02-10T05:10:58.246Z,72.81
2018-02-10T05:11:38.664Z,72.81
2018-02-10T05:12:19.088Z,72.34
2018-02-10T05:12:59.518Z,72.25
2018-02-10T05:13:39.930Z,72.34
2018-02-10T05:14:20.337Z,72.15
2018-02-10T05:15:00.718Z,72.25
2018-02-10T05:15:41.095Z,72.15
2018-02-10T05:16:21.473Z,72.72
2018-02-10T05:17:01.881Z,72.15
2018-02-10T05:17:42.294Z,72.15
2018-02-10T05:18:22.705Z,72.15
2018-02-10T05:19:03.106Z,72.53
2018-02-10T05:19:43.511Z,72.44
2018-02-10T05:20:23.923Z,73.1
2018-02-10T05:22:16.262Z,72.34
2018-02-10T05:22:56.688Z,72.72
2018-02-10T05:23:37.112Z,72.34
2018-02-10T05:24:17.512Z,72.72
2018-02-10T05:24:57.923Z,72.63
2018-02-10T05:25:38.332Z,72.63
2018-02-10T05:26:19.143Z,73
2018-02-10T05:26:59.209Z,72.63
2018-02-10T05:27:39.641Z,72.91
2018-02-10T05:28:20.052Z,72.25
2018-02-10T05:29:00.453Z,72.53
2018-02-10T05:29:40.862Z,72.78
2018-02-10T05:30:21.283Z,72.81
2018-02-10T05:31:01.687Z,72.72
2018-02-10T05:31:42.114Z,73.07
2018-02-10T05:32:22.535Z,72.72
2018-02-10T05:33:02.935Z,73.38
2018-02-10T05:33:43.369Z,72.88
2018-02-10T05:34:23.789Z,72.59
2018-02-10T05:35:04.212Z,72.68
2018-02-10T05:35:44.616Z,72.78
2018-02-10T05:36:25.065Z,72.78
2018-02-10T05:37:05.464Z,73.63
2018-02-10T05:37:45.891Z,73.72
2018-02-10T05:38:26.315Z,74.11
2018-02-10T05:39:06.759Z,74.3
2018-02-10T05:39:47.151Z,74.68
2018-02-10T05:40:27.526Z,74.68
2018-02-10T05:41:07.923Z,74.87
2018-02-10T05:41:48.333Z,75.15
2018-02-10T05:42:28.708Z,75.05
2018-02-10T05:43:09.082Z,74.77
2018-02-10T05:43:49.453Z,74.87
2018-02-10T05:44:29.896Z,74.77
2018-02-10T05:45:10.252Z,74.68
2018-02-10T05:45:50.623Z,75.15
2018-02-10T05:48:08.191Z,75.05
2018-02-10T05:48:48.631Z,74.96
2018-02-10T05:49:29.064Z,74.96
2018-02-10T05:50:09.412Z,74.96
2018-02-10T05:50:49.821Z,75.24
2018-02-10T05:51:30.225Z,75.05
2018-02-10T05:52:10.593Z,75.05
2018-02-10T05:52:51.036Z,75.15
2018-02-10T05:53:31.413Z,75.24
2018-02-10T05:54:11.805Z,75.15
2018-02-10T05:54:52.173Z,75.05
2018-02-10T05:55:32.571Z,75.43
2018-02-10T05:56:12.942Z,75.21
2018-02-10T05:56:53.323Z,76.06
2018-02-10T05:57:33.703Z,75.87
2018-02-10T05:58:14.121Z,75.68
2018-02-10T05:58:54.504Z,76.73
2018-02-10T05:59:34.882Z,76.82
2018-02-10T06:00:15.255Z,76.44
2018-02-10T06:00:55.640Z,76.54
2018-02-10T06:01:36.004Z,76.34
2018-02-10T06:02:16.401Z,76.63
2018-02-10T06:02:56.785Z,76.54
2018-02-10T06:03:37.186Z,76.82
2018-02-10T06:04:17.587Z,76.44
2018-02-10T06:04:57.989Z,76.63
2018-02-10T06:05:38.354Z,76.63
2018-02-10T06:06:18.756Z,76.82
2018-02-10T06:06:59.171Z,76.82
2018-02-10T06:07:39.569Z,76.63
2018-02-10T06:08:19.969Z,76.73
2018-02-10T06:09:00.390Z,76.63
2018-02-10T06:09:40.813Z,76.82
2018-02-10T06:10:21.239Z,76.54
2018-02-10T06:11:01.638Z,76.44
2018-02-10T06:11:42.024Z,76.73
2018-02-10T06:12:22.397Z,76.63
2018-02-10T06:14:39.937Z,77.2
2018-02-10T06:15:20.342Z,77.01
2018-02-10T06:16:00.770Z,76.92
2018-02-10T06:16:41.170Z,76.92
2018-02-10T06:17:21.741Z,77.48
2018-02-10T06:18:02.151Z,77.2
2018-02-10T06:18:42.571Z,77.67
2018-02-10T06:19:22.986Z,77.29
2018-02-10T06:20:03.382Z,77.67
2018-02-10T06:20:43.798Z,77.11
2018-02-10T06:21:24.176Z,77.29
2018-02-10T06:22:04.573Z,77.11
2018-02-10T06:22:44.988Z,76.82
2018-02-10T06:23:25.364Z,76.82
2018-02-10T06:24:05.754Z,77.01
2018-02-10T06:24:46.133Z,77.2
2018-02-10T06:25:26.538Z,77.86
2018-02-10T06:26:06.882Z,77.77
2018-02-10T06:26:47.273Z,77.77
2018-02-10T06:27:27.679Z,77.96
2018-02-10T06:28:08.051Z,78.34
2018-02-10T06:28:48.457Z,78.34
2018-02-10T06:29:28.834Z,78.24
2018-02-10T06:30:09.237Z,78.24
2018-02-10T06:30:49.612Z,78.24
2018-02-10T06:31:30.019Z,78.24
2018-02-10T06:32:10.411Z,78.58
2018-02-10T06:32:50.790Z,78.77
2018-02-10T06:33:31.205Z,78.96
2018-02-10T06:34:11.626Z,79.72
2018-02-10T06:34:52.074Z,80
2018-02-10T06:35:32.442Z,80.19
2018-02-10T06:36:12.837Z,80.76
2018-02-10T06:36:53.216Z,80.76
2018-02-10T06:37:33.621Z,80.71
2018-02-10T06:39:51.190Z,79.95
2018-02-10T06:40:31.610Z,79.95
2018-02-10T06:41:12.030Z,79.19
2018-02-10T06:41:52.456Z,79.1
2018-02-10T06:42:32.867Z,78.91
2018-02-10T06:43:13.291Z,78.81
2018-02-10T06:43:53.677Z,79.1
2018-02-10T06:44:34.084Z,78.72
2018-02-10T06:45:14.555Z,79.19
2018-02-10T06:45:54.961Z,79.19
2018-02-10T06:46:35.326Z,79
2018-02-10T06:48:32.725Z,78.91
2018-02-10T06:49:13.474Z,78.91
2018-02-10T06:49:53.902Z,78.62
2018-02-10T06:50:34.308Z,78.43
2018-02-10T06:51:14.735Z,78.91
2018-02-10T06:51:55.121Z,78.81
2018-02-10T06:52:35.539Z,78.81
2018-02-10T06:53:15.936Z,78.81
2018-02-10T06:53:56.360Z,78.53
2018-02-10T06:54:36.760Z,79
2018-02-10T06:55:17.124Z,78.91
2018-02-10T06:55:57.552Z,78.72
2018-02-10T06:56:37.894Z,78.72
2018-02-10T06:58:25.229Z,78.15
2018-02-10T06:59:06.024Z,78.91
2018-02-10T06:59:46.143Z,78.91
2018-02-10T07:00:26.568Z,78.72
2018-02-10T07:01:06.983Z,78.53
2018-02-10T07:01:47.362Z,78.77
2018-02-10T07:02:27.811Z,78.67
2018-02-10T07:03:08.205Z,78.58
2018-02-10T07:03:48.618Z,79.06
2018-02-10T07:04:29.015Z,79.91
2018-02-10T07:05:09.410Z,79.63
2018-02-10T07:05:49.825Z,80.29
2018-02-10T07:06:30.239Z,80.48
2018-02-10T07:07:10.648Z,80.95
2018-02-10T07:07:51.037Z,81.48
2018-02-10T07:08:31.447Z,82.71
2018-02-10T07:09:11.847Z,83
2018-02-10T07:09:52.269Z,82.9
2018-02-10T07:10:32.685Z,83.28
2018-02-10T07:11:13.053Z,83.37
2018-02-10T07:11:53.477Z,83.37
2018-02-10T07:12:33.895Z,84.51
2018-02-10T07:13:14.294Z,84.61
2018-02-10T07:13:54.710Z,84.51
2018-02-10T07:14:35.112Z,84.13
2018-02-10T07:15:15.516Z,84.51
2018-02-10T07:15:55.874Z,84.51
2018-02-10T07:16:36.307Z,83.37
2018-02-10T07:17:16.718Z,83.18
2018-02-10T07:17:57.140Z,83.47
2018-02-10T07:18:37.562Z,83.94
2018-02-10T07:19:17.943Z,83.47
2018-02-10T07:19:58.364Z,83.28
2018-02-10T07:20:38.791Z,83.56
2018-02-10T07:21:19.206Z,83.18
2018-02-10T07:21:59.621Z,83.37
2018-02-10T07:22:40.052Z,82.9
2018-02-10T07:23:20.469Z,83.09
2018-02-10T07:24:00.854Z,83.28
2018-02-10T07:24:41.228Z,82.71
2018-02-10T07:25:21.645Z,83.51
2018-02-10T07:26:02.014Z,83.18
2018-02-10T07:26:42.421Z,82.52
2018-02-10T07:28:29.830Z,83.13
2018-02-10T07:29:10.980Z,83.28
2018-02-10T07:29:51.352Z,83.28
2018-02-10T07:30:31.732Z,83.09
2018-02-10T07:31:12.145Z,82.81
2018-02-10T07:31:52.553Z,83
2018-02-10T07:32:32.965Z,83.47
2018-02-10T07:33:13.375Z,83.56
2018-02-10T07:33:53.791Z,83.28
2018-02-10T07:34:34.174Z,83.66
2018-02-10T07:35:14.569Z,83.09
2018-02-10T07:35:54.959Z,83.47
2018-02-10T07:36:35.344Z,83.47
2018-02-10T07:37:15.712Z,83.37
2018-02-10T07:37:56.079Z,83.47
2018-02-10T07:38:36.490Z,84.42
2018-02-10T07:39:16.945Z,84.04
2018-02-10T07:39:57.299Z,84.04
2018-02-10T07:40:37.729Z,84.13
2018-02-10T07:41:18.082Z,84.23
2018-02-10T07:41:58.504Z,84.61
2018-02-10T07:42:38.891Z,83.66
2018-02-10T07:43:19.326Z,83.23
2018-02-10T07:43:59.751Z,82.75
2018-02-10T07:44:40.161Z,83.32
2018-02-10T07:45:20.580Z,82.56
2018-02-10T07:46:01.007Z,82.75
2018-02-10T07:46:41.426Z,81.9
2018-02-10T07:47:21.830Z,81.9
2018-02-10T07:48:02.245Z,81.81
2018-02-10T07:48:42.670Z,82.18
2018-02-10T07:49:23.086Z,82.09
2018-02-10T07:50:03.510Z,82.56
2018-02-10T07:50:43.929Z,82.56
2018-02-10T07:51:24.324Z,83.18
2018-02-10T07:52:04.733Z,83.28
2018-02-10T07:52:45.166Z,83.94
2018-02-10T07:53:25.594Z,83.75
2018-02-10T07:54:06.002Z,83.56
2018-02-10T07:54:46.430Z,83.75
2018-02-10T07:55:26.851Z,84.13
2018-02-10T07:56:07.258Z,84.13
2018-02-10T07:56:47.670Z,84.23
2018-02-10T07:57:28.086Z,84.61
2018-02-10T07:58:08.499Z,83.61
2018-02-10T07:58:48.894Z,83.61
2018-02-10T07:59:29.311Z,83.32
2018-02-10T08:00:09.697Z,83.51
2018-02-10T08:00:50.095Z,83.51
2018-02-10T08:01:30.485Z,83.23
2018-02-10T08:02:10.881Z,82.56
2018-02-10T08:02:51.297Z,81.9
2018-02-10T08:03:31.692Z,81.81
2018-02-10T08:04:12.075Z,81.99
2018-02-10T08:04:52.494Z,82.09
2018-02-10T08:05:32.925Z,81.62
2018-02-10T08:06:13.322Z,81.43
2018-02-10T08:06:53.748Z,81.62
2018-02-10T08:07:34.136Z,81.43
2018-02-10T08:09:31.554Z,81.52
2018-02-10T08:10:12.035Z,81.9
2018-02-10T08:10:52.379Z,80.86
2018-02-10T08:11:32.833Z,81.24
2018-02-10T08:12:13.418Z,80.67
2018-02-10T08:12:53.808Z,80.38
2018-02-10T08:13:34.232Z,80.48
2018-02-10T08:14:14.639Z,80.67
2018-02-10T08:14:55.048Z,80.95
2018-02-10T08:15:35.472Z,80.95
2018-02-10T08:16:15.875Z,81.24
2018-02-10T08:16:56.283Z,81.52
2018-02-10T08:17:36.686Z,81.62
2018-02-10T08:18:17.076Z,81.81
2018-02-10T08:18:57.432Z,82.28
2018-02-10T08:19:37.822Z,81.33
2018-02-10T08:20:18.244Z,81.52
2018-02-10T08:20:58.622Z,81.43
2018-02-10T08:21:39.022Z,81.62
2018-02-10T08:22:19.412Z,81.62
2018-02-10T08:22:59.836Z,81.81
2018-02-10T08:23:40.233Z,81.14
2018-02-10T08:24:20.672Z,81.43
2018-02-10T08:25:01.061Z,80.95
2018-02-10T08:25:41.883Z,81.27
2018-02-10T08:26:22.269Z,80.9
2018-02-10T08:27:02.663Z,80.33
2018-02-10T08:27:43.070Z,80.14
2018-02-10T08:28:23.453Z,79.66
2018-02-10T08:29:03.873Z,79.85
2018-02-10T08:29:44.256Z,79.85
2018-02-10T08:30:24.651Z,79.38
2018-02-10T08:31:05.033Z,78.81
2018-02-10T08:31:45.438Z,79.1
2018-02-10T08:32:25.820Z,78.72
2018-02-10T08:33:06.215Z,78.81
2018-02-10T08:33:46.591Z,78.91
2018-02-10T08:34:26.964Z,79
2018-02-10T08:35:07.378Z,79
2018-02-10T08:35:47.762Z,78.91
2018-02-10T08:36:28.140Z,78.91
2018-02-10T08:37:08.560Z,79.76
2018-02-10T08:37:48.934Z,79.57
2018-02-10T08:38:29.346Z,79.85
2018-02-10T08:39:09.760Z,79.38
2018-02-10T08:39:50.179Z,79.47
2018-02-10T08:40:30.599Z,78.91
2018-02-10T08:41:11.019Z,78.91
2018-02-10T08:41:51.448Z,78.62
2018-02-10T08:42:31.868Z,78.72
2018-02-10T08:43:12.279Z,79.19
2018-02-10T08:43:52.711Z,79.19
2018-02-10T08:44:33.084Z,78.91
2018-02-10T08:45:13.504Z,78.72
2018-02-10T08:45:53.901Z,78.72
2018-02-10T08:46:34.325Z,78.72
2018-02-10T08:47:14.739Z,78.05
2018-02-10T08:47:55.155Z,78.24
2018-02-10T08:48:35.567Z,78.24
2018-02-10T08:49:15.979Z,78.24
2018-02-10T08:49:56.413Z,78.24
2018-02-10T08:50:36.832Z,78.43
2018-02-10T08:51:17.213Z,78.91
2018-02-10T08:51:57.650Z,78.43
2018-02-10T08:52:38.007Z,78.34
2018-02-10T08:53:18.670Z,78.91
2018-02-10T08:53:59.083Z,78.91
2018-02-10T08:54:39.511Z,78.81
2018-02-10T08:56:57.038Z,78.56
2018-02-10T08:57:37.440Z,78.28
2018-02-10T08:58:17.835Z,78.19
2018-02-10T08:58:58.279Z,78.19
2018-02-10T08:59:38.698Z,77.52
2018-02-10T09:00:19.092Z,77.81
2018-02-10T09:00:59.518Z,77.81
2018-02-10T09:01:39.887Z,77.9
2018-02-10T09:02:20.372Z,77.43
2018-02-10T09:03:00.799Z,77.9
2018-02-10T09:03:41.202Z,77.33
2018-02-10T09:04:21.610Z,76.67
2018-02-10T09:05:01.978Z,76.86
2018-02-10T09:07:14.895Z,76.67
2018-02-10T09:07:56.883Z,76.86
2018-02-10T09:09:57.211Z,76.57
2018-02-10T09:10:39.887Z,76.29
2018-02-10T09:11:20.284Z,76.29
2018-02-10T09:12:00.718Z,76.39
2018-02-10T09:12:41.142Z,76.29
2018-02-10T09:13:21.552Z,76.67
2018-02-10T09:14:01.969Z,76.48
2018-02-10T09:14:42.392Z,76.67
2018-02-10T09:15:22.814Z,77.14
2018-02-10T09:16:03.236Z,77.77
2018-02-10T09:16:43.621Z,77.86
2018-02-10T09:17:24.001Z,78.05
2018-02-10T09:18:04.413Z,77.86
2018-02-10T09:18:44.853Z,78.91
2018-02-10T09:19:25.286Z,79.28
2018-02-10T09:20:05.670Z,79.28
2018-02-10T09:20:46.091Z,78.81
2018-02-10T09:21:26.524Z,79.19
2018-02-10T09:22:06.977Z,79.19
2018-02-10T09:22:47.381Z,79.38
2018-02-10T09:23:27.764Z,79.47
2018-02-10T09:24:08.179Z,79.76
2018-02-10T09:24:48.587Z,79.95
2018-02-10T09:25:28.996Z,79.76
2018-02-10T09:26:09.354Z,79.38
2018-02-10T09:26:49.782Z,79.76
2018-02-10T09:27:30.215Z,79.85
2018-02-10T09:28:10.614Z,79.47
2018-02-10T09:28:51.000Z,79.76
2018-02-10T09:29:31.426Z,79.57
2018-02-10T09:31:49.047Z,79.19
2018-02-10T09:32:31.206Z,79.19
2018-02-10T09:33:11.329Z,78.91
2018-02-10T09:33:51.742Z,78.81
2018-02-10T09:34:32.152Z,77.96
2018-02-10T09:35:12.532Z,78.95
2018-02-10T09:35:52.969Z,78.09
2018-02-10T09:36:33.354Z,78.28
2018-02-10T09:37:13.763Z,78.28
2018-02-10T09:37:54.173Z,77.71
2018-02-10T09:38:34.605Z,77.81
2018-02-10T09:39:15.043Z,77.43
2018-02-10T09:39:55.437Z,77.9
2018-02-10T09:40:35.835Z,78.09
2018-02-10T09:41:16.237Z,77.33
2018-02-10T09:41:56.647Z,77.43
2018-02-10T09:42:37.076Z,77.14
2018-02-10T09:43:17.525Z,77.33
2018-02-10T09:43:57.937Z,77.71
2018-02-10T09:44:38.345Z,77.71
2018-02-10T09:45:18.751Z,78
2018-02-10T09:45:59.153Z,77.62
2018-02-10T09:46:39.549Z,78.56
2018-02-10T09:47:19.914Z,77.9
2018-02-10T09:48:00.305Z,77.9
2018-02-10T09:48:40.659Z,78.38
2018-02-10T09:49:21.062Z,78.75
2018-02-10T09:50:01.428Z,78.75
2018-02-10T09:50:41.828Z,78
2018-02-10T09:51:22.244Z,78.47
2018-02-10T09:52:02.651Z,78.95
2018-02-10T09:52:43.057Z,78.85
2018-02-10T09:53:23.476Z,78.95
2018-02-10T09:54:03.884Z,79.42
2018-02-10T09:56:01.436Z,80.71
2018-02-10T09:56:41.823Z,81.04
2018-02-10T09:57:22.256Z,81.47
2018-02-10T09:58:02.681Z,81.85
2018-02-10T09:58:43.092Z,81.94
2018-02-10T09:59:23.507Z,81.94
2018-02-10T10:00:03.885Z,82.13
2018-02-10T10:00:44.252Z,81.85
2018-02-10T10:01:24.646Z,81.94
2018-02-10T10:02:05.086Z,82.89
2018-02-10T10:02:45.473Z,83.5
2018-02-10T10:03:25.876Z,83.12
2018-02-10T10:04:06.267Z,82.74
2018-02-10T10:04:46.672Z,82.74
2018-02-10T10:43:27.668Z,85.21
2018-02-10T10:44:08.054Z,85.21
2018-02-10T10:44:48.477Z,86.07
2018-02-10T10:45:29.013Z,85.97